Time;durP1;ratioP1;P1;durP2;ratioP2;P2;SDS_P1;SDS_P2;PMS_P1;PMS_P2;Temp;Humidity;BMP_temperature;BMP_pressure;BME280_temperature;BME280_humidity;BME280_pressure;Samples;Min_cycle;Max_cycle;Signal;HPM_P1;HPM_P2
2023/11/01 00:02:51;;;;;;;7.65;3.75;;;;;;;;;;10252714;28;20043;-64
2023/11/01 00:07:51;;;;;;;10.05;3.50;;;;;;;;;;10248662;28;21802;-64
2023/11/01 00:12:52;;;;;;;9.80;3.85;;;;;;;;;;10248731;28;20028;-63
2023/11/01 00:17:53;;;;;;;13.52;4.32;;;;;;;;;;10250100;28;20031;-66
2023/11/01 00:22:53;;;;;;;20.05;3.92;;;;;;;;;;10248742;29;20089;-64
2023/11/01 00:27:54;;;;;;;23.67;4.05;;;;;;;;;;10242707;28;20085;-63
2023/11/01 00:32:55;;;;;;;25.88;3.92;;;;;;;;;;10235749;28;20027;-65
2023/11/01 00:37:55;;;;;;;16.77;3.60;;;;;;;;;;10246369;28;20086;-64
2023/11/01 00:42:56;;;;;;;29.95;3.90;;;;;;;;;;10236359;28;20039;-64
2023/11/01 00:47:56;;;;;;;8.55;3.25;;;;;;;;;;10246957;29;20031;-64
2023/11/01 00:52:57;;;;;;;8.98;3.45;;;;;;;;;;10240207;28;20035;-63
2023/11/01 00:57:58;;;;;;;6.93;3.40;;;;;;;;;;10225150;28;20031;-63
2023/11/01 01:02:58;;;;;;;7.00;3.08;;;;;;;;;;10237799;28;20019;-65
2023/11/01 01:07:59;;;;;;;7.32;3.05;;;;;;;;;;10244644;28;20027;-65
2023/11/01 01:13:00;;;;;;;8.05;2.85;;;;;;;;;;10233783;28;20437;-65
2023/11/01 01:18:00;;;;;;;5.53;2.58;;;;;;;;;;10244984;28;20107;-65
2023/11/01 01:23:01;;;;;;;5.63;2.38;;;;;;;;;;10242302;28;20035;-65
2023/11/01 01:28:01;;;;;;;4.13;2.25;;;;;;;;;;10245703;28;20510;-65
2023/11/01 01:33:02;;;;;;;6.55;2.33;;;;;;;;;;10239175;28;20498;-63
2023/11/01 01:38:03;;;;;;;4.75;2.20;;;;;;;;;;10242949;28;20089;-63
2023/11/01 01:43:30;;;;;;;4.32;2.28;;;;;;;;;;10238695;28;20019;-63
2023/11/01 01:48:31;;;;;;;3.80;2.20;;;;;;;;;;10245103;28;20043;-66
2023/11/01 01:53:33;;;;;;;5.68;2.03;;;;;;;;;;10243845;28;20050;-64
2023/11/01 01:58:37;;;;;;;2.63;2.03;;;;;;;;;;10243409;28;20043;-64
2023/11/01 02:03:38;;;;;;;3.97;2.20;;;;;;;;;;10244118;28;20027;-64
2023/11/01 02:08:38;;;;;;;3.60;1.90;;;;;;;;;;10233345;29;20391;-65
2023/11/01 02:13:39;;;;;;;5.00;1.95;;;;;;;;;;10244917;28;20066;-63
2023/11/01 02:18:40;;;;;;;6.45;2.00;;;;;;;;;;10221355;29;20027;-62
2023/11/01 02:23:43;;;;;;;4.30;2.00;;;;;;;;;;10241789;29;20031;-63
2023/11/01 02:28:43;;;;;;;6.15;2.13;;;;;;;;;;10230832;28;20035;-64
2023/11/01 02:33:44;;;;;;;3.17;2.20;;;;;;;;;;10243974;28;20617;-64
2023/11/01 02:38:44;;;;;;;3.13;1.88;;;;;;;;;;10243713;29;20039;-64
2023/11/01 02:43:45;;;;;;;2.78;2.10;;;;;;;;;;10244038;28;20398;-62
2023/11/01 02:48:46;;;;;;;2.88;1.85;;;;;;;;;;10241933;28;20400;-63
2023/11/01 02:53:47;;;;;;;2.35;2.15;;;;;;;;;;10242937;29;20051;-64
2023/11/01 02:58:48;;;;;;;3.92;2.33;;;;;;;;;;10236822;28;20035;-64
2023/11/01 03:03:49;;;;;;;2.90;2.00;;;;;;;;;;10250591;28;20369;-66
2023/11/01 03:08:50;;;;;;;1.95;1.77;;;;;;;;;;10249532;28;20035;-64
2023/11/01 03:13:51;;;;;;;2.35;1.95;;;;;;;;;;10228302;28;20035;-64
2023/11/01 03:18:51;;;;;;;3.50;2.00;;;;;;;;;;10248729;29;20423;-64
2023/11/01 03:23:52;;;;;;;3.20;1.80;;;;;;;;;;10250157;29;20609;-62
2023/11/01 03:28:52;;;;;;;3.85;1.98;;;;;;;;;;10250475;28;20498;-64
2023/11/01 03:33:53;;;;;;;2.25;1.77;;;;;;;;;;10250614;28;20147;-63
2023/11/01 03:38:54;;;;;;;2.33;1.80;;;;;;;;;;10247199;28;20392;-64
2023/11/01 03:43:54;;;;;;;2.08;1.88;;;;;;;;;;10238926;29;20038;-62
2023/11/01 03:48:55;;;;;;;4.07;1.98;;;;;;;;;;10250526;28;20034;-62
2023/11/01 03:53:55;;;;;;;3.05;1.50;;;;;;;;;;10247902;28;20035;-62
2023/11/01 03:58:56;;;;;;;2.45;1.83;;;;;;;;;;10247376;29;20042;-63
2023/11/01 04:03:56;;;;;;;5.20;1.73;;;;;;;;;;10228872;28;20038;-63
2023/11/01 04:08:58;;;;;;;1.80;1.70;;;;;;;;;;10240164;28;20042;-64
2023/11/01 04:13:59;;;;;;;1.98;1.70;;;;;;;;;;10235400;28;20027;-64
2023/11/01 04:19:02;;;;;;;1.50;1.40;;;;;;;;;;10248438;28;20050;-63
2023/11/01 04:24:03;;;;;;;1.90;1.70;;;;;;;;;;10236014;28;20458;-64
2023/11/01 04:29:04;;;;;;;8.18;1.88;;;;;;;;;;10236532;28;20089;-64
2023/11/01 04:34:05;;;;;;;2.45;2.13;;;;;;;;;;10244709;28;20134;-64
2023/11/01 04:39:05;;;;;;;5.35;1.55;;;;;;;;;;10246969;28;20027;-64
2023/11/01 04:44:06;;;;;;;3.08;1.80;;;;;;;;;;10246631;28;20034;-64
2023/11/01 04:49:06;;;;;;;2.40;1.77;;;;;;;;;;10238967;29;20032;-63
2023/11/01 04:54:07;;;;;;;2.05;1.70;;;;;;;;;;10242899;29;20039;-63
2023/11/01 04:59:08;;;;;;;2.35;1.63;;;;;;;;;;10245733;28;20027;-64
2023/11/01 05:04:09;;;;;;;6.93;1.75;;;;;;;;;;10232799;28;20096;-64
2023/11/01 05:09:11;;;;;;;3.55;1.50;;;;;;;;;;10240723;28;20540;-64
2023/11/01 05:14:12;;;;;;;2.53;1.80;;;;;;;;;;10231271;28;20028;-63
2023/11/01 05:19:12;;;;;;;1.67;1.55;;;;;;;;;;10240437;28;20027;-63
2023/11/01 05:24:13;;;;;;;1.77;1.67;;;;;;;;;;10236585;28;20097;-63
2023/11/01 05:29:16;;;;;;;2.20;1.73;;;;;;;;;;10243018;28;20064;-63
2023/11/01 05:34:16;;;;;;;1.67;1.58;;;;;;;;;;10238230;28;20379;-63
2023/11/01 05:39:18;;;;;;;1.50;1.40;;;;;;;;;;10239046;28;20038;-63
2023/11/01 05:44:19;;;;;;;2.15;1.55;;;;;;;;;;10241252;28;20031;-62
2023/11/01 05:49:20;;;;;;;1.73;1.60;;;;;;;;;;10234904;28;20031;-62
2023/11/01 05:54:21;;;;;;;2.05;1.50;;;;;;;;;;10244257;28;20039;-63
2023/11/01 05:59:21;;;;;;;3.17;1.80;;;;;;;;;;10229399;29;20479;-63
2023/11/01 06:04:22;;;;;;;9.52;1.75;;;;;;;;;;10241794;28;20027;-64
2023/11/01 06:09:23;;;;;;;2.55;2.00;;;;;;;;;;10249994;28;20034;-65
2023/11/01 06:14:24;;;;;;;4.05;1.80;;;;;;;;;;10242539;28;20035;-65
2023/11/01 06:19:25;;;;;;;6.75;1.65;;;;;;;;;;10242425;29;20046;-65
2023/11/01 06:24:26;;;;;;;1.33;1.23;;;;;;;;;;10242428;28;20035;-65
2023/11/01 06:29:27;;;;;;;1.60;1.50;;;;;;;;;;10235851;28;20043;-65
2023/11/01 06:34:27;;;;;;;4.35;1.50;;;;;;;;;;10243424;28;20031;-65
2023/11/01 06:39:28;;;;;;;5.22;1.67;;;;;;;;;;10246115;28;20495;-65
2023/11/01 06:44:32;;;;;;;3.40;1.42;;;;;;;;;;10250478;28;20054;-64
2023/11/01 06:49:34;;;;;;;1.92;1.40;;;;;;;;;;10245416;28;20042;-64
2023/11/01 06:54:38;;;;;;;3.22;1.73;;;;;;;;;;10247986;29;20070;-65
2023/11/01 06:59:39;;;;;;;2.92;1.67;;;;;;;;;;10247327;28;20039;-64
2023/11/01 07:04:39;;;;;;;1.50;1.40;;;;;;;;;;10249523;28;20043;-65
2023/11/01 07:09:40;;;;;;;4.25;1.70;;;;;;;;;;10251211;28;20395;-65
2023/11/01 07:14:41;;;;;;;1.38;1.27;;;;;;;;;;10249114;29;20143;-65
2023/11/01 07:19:42;;;;;;;1.40;1.30;;;;;;;;;;10249495;28;20160;-64
2023/11/01 07:24:42;;;;;;;1.65;1.48;;;;;;;;;;10250920;28;20086;-65
2023/11/01 07:29:43;;;;;;;1.40;1.30;;;;;;;;;;10248435;28;20032;-65
2023/11/01 07:34:43;;;;;;;1.92;1.13;;;;;;;;;;10241069;29;20495;-65
2023/11/01 07:39:44;;;;;;;3.55;1.48;;;;;;;;;;10222964;29;20035;-65
2023/11/01 07:44:44;;;;;;;2.13;1.50;;;;;;;;;;10223944;28;20149;-65
2023/11/01 07:49:45;;;;;;;1.50;1.40;;;;;;;;;;10230346;29;20407;-67
2023/11/01 07:54:46;;;;;;;1.70;1.58;;;;;;;;;;10248123;29;20365;-62
2023/11/01 07:59:47;;;;;;;2.05;1.55;;;;;;;;;;10248060;28;20043;-64
2023/11/01 08:04:48;;;;;;;1.40;1.30;;;;;;;;;;10244270;28;20031;-64
2023/11/01 08:09:50;;;;;;;1.40;1.30;;;;;;;;;;10249296;28;20090;-66
2023/11/01 08:14:51;;;;;;;1.70;1.40;;;;;;;;;;10248160;28;20043;-63
2023/11/01 08:19:51;;;;;;;2.35;1.60;;;;;;;;;;10236192;28;20042;-62
2023/11/01 08:24:52;;;;;;;1.90;1.38;;;;;;;;;;10215954;29;20498;-62
2023/11/01 08:29:54;;;;;;;1.90;1.40;;;;;;;;;;10223429;29;20042;-65
2023/11/01 08:34:57;;;;;;;1.40;1.30;;;;;;;;;;10227322;28;20031;-65
2023/11/01 08:39:57;;;;;;;4.90;1.40;;;;;;;;;;10244511;29;20123;-65
2023/11/01 08:44:58;;;;;;;2.65;1.25;;;;;;;;;;10246414;28;20498;-66
2023/11/01 08:49:59;;;;;;;3.00;1.40;;;;;;;;;;10247589;28;20035;-66
2023/11/01 08:55:00;;;;;;;2.42;1.40;;;;;;;;;;10234179;28;20031;-66
2023/11/01 09:00:01;;;;;;;1.40;1.25;;;;;;;;;;10242450;28;20063;-65
2023/11/01 09:05:02;;;;;;;1.88;1.33;;;;;;;;;;10243712;28;20118;-65
2023/11/01 09:10:03;;;;;;;1.88;1.40;;;;;;;;;;10245788;28;20402;-64
2023/11/01 09:15:05;;;;;;;3.90;1.50;;;;;;;;;;10234427;29;20475;-63
2023/11/01 09:20:06;;;;;;;5.03;1.42;;;;;;;;;;10228933;29;20029;-65
2023/11/01 09:25:08;;;;;;;3.03;1.30;;;;;;;;;;10216426;29;20024;-65
2023/11/01 09:30:09;;;;;;;3.95;1.50;;;;;;;;;;10223218;28;20042;-65
2023/11/01 09:35:12;;;;;;;5.38;1.45;;;;;;;;;;10231614;29;20186;-63
2023/11/01 09:40:13;;;;;;;4.47;1.30;;;;;;;;;;10221469;28;20083;-64
2023/11/01 09:45:14;;;;;;;12.18;1.70;;;;;;;;;;10223462;28;20360;-65
2023/11/01 09:50:17;;;;;;;7.38;1.60;;;;;;;;;;10220887;28;20083;-64
2023/11/01 09:55:19;;;;;;;13.30;2.15;;;;;;;;;;10229667;28;20043;-64
2023/11/01 10:00:21;;;;;;;11.25;1.80;;;;;;;;;;10225258;28;20040;-60
2023/11/01 10:05:22;;;;;;;5.40;1.48;;;;;;;;;;10220202;29;20043;-60
2023/11/01 10:10:24;;;;;;;5.03;1.38;;;;;;;;;;10226755;28;20035;-60
2023/11/01 10:15:25;;;;;;;2.80;1.38;;;;;;;;;;10229314;28;20047;-59
2023/11/01 10:20:31;;;;;;;2.33;1.42;;;;;;;;;;10242859;28;20035;-60
2023/11/01 10:25:32;;;;;;;2.83;1.70;;;;;;;;;;10244340;29;20600;-61
2023/11/01 10:30:32;;;;;;;2.42;1.52;;;;;;;;;;10231299;29;20031;-60
2023/11/01 10:35:34;;;;;;;2.08;1.23;;;;;;;;;;10232557;28;20050;-60
2023/11/01 10:40:36;;;;;;;1.30;1.20;;;;;;;;;;10224136;29;20023;-60
2023/11/01 10:45:37;;;;;;;1.75;1.10;;;;;;;;;;10224137;28;20578;-61
2023/11/01 10:50:39;;;;;;;3.33;1.15;;;;;;;;;;10224394;29;20067;-61
2023/11/01 10:55:41;;;;;;;3.25;1.20;;;;;;;;;;10235694;28;20030;-60
2023/11/01 11:00:46;;;;;;;2.03;1.00;;;;;;;;;;10234957;29;20035;-61
2023/11/01 11:05:49;;;;;;;1.88;1.20;;;;;;;;;;10239731;29;20380;-61
2023/11/01 11:10:50;;;;;;;3.95;1.27;;;;;;;;;;10235346;29;20040;-60
2023/11/01 11:15:51;;;;;;;1.67;1.15;;;;;;;;;;10238391;28;20024;-61
2023/11/01 11:20:52;;;;;;;3.28;1.20;;;;;;;;;;10237757;28;20066;-60
2023/11/01 11:25:53;;;;;;;1.60;1.10;;;;;;;;;;10244217;28;20046;-61
2023/11/01 11:31:01;;;;;;;1.88;1.50;;;;;;;;;;10248360;28;20031;-60
2023/11/01 11:36:07;;;;;;;4.40;1.05;;;;;;;;;;10247310;29;20294;-61
2023/11/01 11:41:37;;;;;;;1.58;1.30;;;;;;;;;;10243263;28;20027;-62
2023/11/01 11:46:40;;;;;;;2.33;1.30;;;;;;;;;;10238640;28;20063;-62
2023/11/01 11:51:53;;;;;;;10.68;1.40;;;;;;;;;;10241670;29;20086;-61
2023/11/01 11:56:56;;;;;;;10.73;1.67;;;;;;;;;;10247084;28;20040;-61
2023/11/01 12:02:13;;;;;;;10.05;1.60;;;;;;;;;;10246376;28;20043;-61
2023/11/01 12:07:18;;;;;;;6.90;1.70;;;;;;;;;;10247487;29;20030;-62
2023/11/01 12:12:19;;;;;;;2.88;1.50;;;;;;;;;;10247140;28;20082;-62
2023/11/01 12:17:20;;;;;;;6.28;1.30;;;;;;;;;;10246999;28;20028;-62
2023/11/01 12:22:21;;;;;;;1.88;1.38;;;;;;;;;;10245709;28;20106;-62
2023/11/01 12:27:31;;;;;;;1.23;1.13;;;;;;;;;;10244063;28;20034;-61
2023/11/01 12:32:33;;;;;;;2.72;1.40;;;;;;;;;;10245730;28;20034;-61
2023/11/01 12:37:36;;;;;;;1.50;1.10;;;;;;;;;;10237408;28;20046;-61
2023/11/01 12:42:41;;;;;;;1.27;1.17;;;;;;;;;;10229102;29;20042;-61
2023/11/01 12:47:52;;;;;;;1.20;1.10;;;;;;;;;;10235588;28;20039;-61
2023/11/01 12:52:53;;;;;;;1.10;0.90;;;;;;;;;;10242567;29;20039;-61
2023/11/01 12:57:54;;;;;;;1.67;1.10;;;;;;;;;;10247634;28;20089;-61
2023/11/01 13:02:56;;;;;;;1.20;1.10;;;;;;;;;;10243615;28;20028;-61
2023/11/01 13:07:58;;;;;;;1.20;1.10;;;;;;;;;;10238603;29;20039;-60
2023/11/01 13:12:58;;;;;;;1.20;1.10;;;;;;;;;;10242603;28;20402;-61
2023/11/01 13:17:59;;;;;;;2.17;1.10;;;;;;;;;;10227489;29;20034;-60
2023/11/01 13:22:59;;;;;;;8.63;1.30;;;;;;;;;;10216717;29;20111;-60
2023/11/01 13:28:01;;;;;;;4.65;1.27;;;;;;;;;;10222527;29;20594;-60
2023/11/01 13:33:02;;;;;;;3.28;1.60;;;;;;;;;;10238533;28;20039;-60
2023/11/01 13:38:02;;;;;;;1.45;1.05;;;;;;;;;;10239141;28;20037;-60
2023/11/01 13:43:03;;;;;;;1.05;0.90;;;;;;;;;;10245139;28;20039;-63
2023/11/01 13:48:04;;;;;;;2.08;0.95;;;;;;;;;;10233485;28;20034;-62
2023/11/01 13:53:05;;;;;;;3.65;1.88;;;;;;;;;;10235084;28;20129;-65
2023/11/01 13:58:05;;;;;;;6.22;1.60;;;;;;;;;;10226993;28;20035;-62
2023/11/01 14:03:06;;;;;;;6.30;1.10;;;;;;;;;;10235640;28;20027;-62
2023/11/01 14:08:08;;;;;;;2.33;1.38;;;;;;;;;;10247355;28;20028;-62
2023/11/01 14:13:08;;;;;;;3.70;1.70;;;;;;;;;;10244041;28;20037;-63
2023/11/01 14:18:09;;;;;;;1.50;1.23;;;;;;;;;;10216360;28;20039;-63
2023/11/01 14:23:10;;;;;;;2.85;1.10;;;;;;;;;;10252720;28;20061;-62
2023/11/01 14:28:12;;;;;;;2.08;1.30;;;;;;;;;;10244465;29;20034;-62
2023/11/01 14:33:13;;;;;;;4.03;1.52;;;;;;;;;;10240299;29;20035;-62
2023/11/01 14:38:14;;;;;;;5.13;1.38;;;;;;;;;;10238160;28;20023;-62
2023/11/01 14:43:14;;;;;;;2.88;1.20;;;;;;;;;;10235539;28;20111;-62
2023/11/01 14:48:15;;;;;;;2.28;1.15;;;;;;;;;;10243698;28;20442;-62
2023/11/01 14:53:16;;;;;;;1.90;1.10;;;;;;;;;;10243487;28;20050;-62
2023/11/01 14:58:16;;;;;;;2.35;1.42;;;;;;;;;;10243426;28;20086;-62
2023/11/01 15:03:17;;;;;;;1.58;1.25;;;;;;;;;;10251376;28;20023;-62
2023/11/01 15:08:17;;;;;;;9.00;1.48;;;;;;;;;;10243618;29;20106;-62
2023/11/01 15:13:18;;;;;;;1.80;1.15;;;;;;;;;;10238344;28;20061;-62
2023/11/01 15:18:18;;;;;;;1.88;1.30;;;;;;;;;;10233073;28;20028;-62
2023/11/01 15:23:19;;;;;;;2.78;1.55;;;;;;;;;;10243778;28;20038;-61
2023/11/01 15:28:19;;;;;;;5.43;1.20;;;;;;;;;;10240658;29;20031;-62
2023/11/01 15:33:20;;;;;;;1.98;1.10;;;;;;;;;;10248109;29;20034;-62
2023/11/01 15:38:21;;;;;;;1.95;1.00;;;;;;;;;;10242116;28;20020;-62
2023/11/01 15:43:21;;;;;;;3.63;1.30;;;;;;;;;;10243449;28;20039;-63
2023/11/01 15:48:23;;;;;;;2.03;1.20;;;;;;;;;;10243675;28;20043;-63
2023/11/01 15:53:25;;;;;;;4.68;1.20;;;;;;;;;;10235059;28;20058;-62
2023/11/01 15:58:26;;;;;;;2.30;1.27;;;;;;;;;;10245336;28;20491;-62
2023/11/01 16:03:26;;;;;;;4.18;1.45;;;;;;;;;;10249131;28;20039;-62
2023/11/01 16:08:28;;;;;;;3.40;1.65;;;;;;;;;;10245567;28;20134;-62
2023/11/01 16:13:30;;;;;;;2.65;1.42;;;;;;;;;;10244210;28;20635;-63
2023/11/01 16:18:30;;;;;;;2.47;1.30;;;;;;;;;;10231247;28;20114;-63
2023/11/01 16:23:31;;;;;;;2.65;1.30;;;;;;;;;;10239249;29;20034;-63
2023/11/01 16:28:31;;;;;;;3.03;1.17;;;;;;;;;;10247708;29;20037;-62
2023/11/01 16:33:32;;;;;;;1.30;1.20;;;;;;;;;;10246489;28;20038;-62
2023/11/01 16:38:32;;;;;;;4.40;1.38;;;;;;;;;;10249718;28;20034;-64
2023/11/01 16:43:33;;;;;;;2.42;1.55;;;;;;;;;;10234925;28;20031;-62
2023/11/01 16:48:34;;;;;;;2.65;1.77;;;;;;;;;;10245359;28;20031;-60
2023/11/01 16:53:34;;;;;;;3.88;2.50;;;;;;;;;;10244228;28;20057;-61
2023/11/01 16:58:35;;;;;;;6.05;2.65;;;;;;;;;;10234417;28;20039;-60
2023/11/01 17:03:36;;;;;;;3.28;2.10;;;;;;;;;;10217415;29;20082;-62
2023/11/01 17:08:37;;;;;;;3.92;2.20;;;;;;;;;;10218825;28;20039;-66
2023/11/01 17:13:37;;;;;;;3.85;2.00;;;;;;;;;;10216447;28;20083;-64
2023/11/01 17:18:38;;;;;;;3.15;2.28;;;;;;;;;;10217624;28;20035;-64
2023/11/01 17:23:44;;;;;;;3.83;1.98;;;;;;;;;;10222801;29;20039;-64
2023/11/01 17:28:46;;;;;;;4.72;2.25;;;;;;;;;;10221985;28;20499;-63
2023/11/01 17:33:47;;;;;;;7.65;2.30;;;;;;;;;;10214978;28;20400;-64
2023/11/01 17:38:48;;;;;;;5.63;1.77;;;;;;;;;;10236332;29;20034;-63
2023/11/01 17:43:58;;;;;;;2.15;1.48;;;;;;;;;;10240947;28;20391;-65
2023/11/01 17:48:58;;;;;;;4.90;2.05;;;;;;;;;;10240730;28;20500;-62
2023/11/01 17:54:02;;;;;;;2.92;2.00;;;;;;;;;;10232771;28;20107;-63
2023/11/01 17:59:04;;;;;;;4.13;1.83;;;;;;;;;;10241339;29;20058;-61
2023/11/01 18:04:05;;;;;;;3.53;1.83;;;;;;;;;;10237668;28;20028;-62
2023/11/01 18:09:14;;;;;;;2.45;1.80;;;;;;;;;;10236544;28;20040;-62
2023/11/01 18:14:15;;;;;;;2.85;1.90;;;;;;;;;;10228683;28;20023;-62
2023/11/01 18:19:15;;;;;;;5.85;2.20;;;;;;;;;;10232551;28;20054;-63
2023/11/01 18:24:42;;;;;;;3.05;2.38;;;;;;;;;;10239638;28;20027;-62
2023/11/01 18:29:43;;;;;;;6.13;2.42;;;;;;;;;;10235623;28;20074;-62
2023/11/01 18:34:44;;;;;;;2.50;2.30;;;;;;;;;;10246993;28;20090;-62
2023/11/01 18:39:45;;;;;;;4.53;2.80;;;;;;;;;;10247702;28;20031;-64
2023/11/01 18:44:46;;;;;;;4.65;2.75;;;;;;;;;;10250095;28;20039;-63
2023/11/01 18:50:06;;;;;;;3.85;2.35;;;;;;;;;;10249154;28;20027;-63
2023/11/01 18:55:09;;;;;;;4.40;2.58;;;;;;;;;;10248713;28;20373;-63
2023/11/01 19:00:23;;;;;;;5.18;2.83;;;;;;;;;;10240199;28;20471;-63
2023/11/01 19:05:24;;;;;;;5.68;2.70;;;;;;;;;;10238046;29;20042;-63
2023/11/01 19:10:33;;;;;;;5.90;2.60;;;;;;;;;;10238984;28;20514;-63
2023/11/01 19:15:39;;;;;;;2.53;2.17;;;;;;;;;;10248361;29;20062;-63
2023/11/01 19:20:41;;;;;;;12.48;2.75;;;;;;;;;;10244583;28;20032;-63
2023/11/01 19:25:42;;;;;;;3.70;2.33;;;;;;;;;;10250007;29;20035;-63
2023/11/01 19:30:42;;;;;;;2.40;2.20;;;;;;;;;;10239313;28;20403;-63
2023/11/01 19:35:43;;;;;;;3.50;2.30;;;;;;;;;;10247040;28;20038;-63
2023/11/01 19:40:44;;;;;;;3.33;2.28;;;;;;;;;;10240223;28;20027;-63
2023/11/01 19:45:45;;;;;;;5.32;2.38;;;;;;;;;;10244029;28;20419;-63
2023/11/01 19:50:46;;;;;;;5.30;2.50;;;;;;;;;;10232367;28;20135;-63
2023/11/01 19:55:46;;;;;;;3.58;2.80;;;;;;;;;;10241052;29;20039;-63
2023/11/01 20:00:47;;;;;;;5.75;2.60;;;;;;;;;;10245277;28;20023;-64
2023/11/01 20:05:49;;;;;;;4.70;2.88;;;;;;;;;;10244711;28;20024;-62
2023/11/01 20:10:49;;;;;;;2.65;2.45;;;;;;;;;;10242993;28;20043;-63
2023/11/01 20:15:50;;;;;;;3.50;2.85;;;;;;;;;;10240228;28;20027;-62
2023/11/01 20:20:51;;;;;;;5.85;2.75;;;;;;;;;;10229907;28;20678;-63
2023/11/01 20:25:51;;;;;;;4.25;2.47;;;;;;;;;;10240000;28;20047;-64
2023/11/01 20:30:52;;;;;;;3.00;2.63;;;;;;;;;;10236599;29;20039;-63
2023/11/01 20:35:53;;;;;;;4.68;2.60;;;;;;;;;;10238514;28;20042;-63
2023/11/01 20:40:53;;;;;;;9.00;3.17;;;;;;;;;;10231097;28;20024;-63
2023/11/01 20:45:54;;;;;;;3.20;2.30;;;;;;;;;;10235620;28;20034;-63
2023/11/01 20:50:54;;;;;;;2.85;2.50;;;;;;;;;;10232956;29;20039;-63
2023/11/01 20:55:56;;;;;;;7.07;3.00;;;;;;;;;;10230356;28;20108;-63
2023/11/01 21:00:57;;;;;;;3.83;2.60;;;;;;;;;;10235966;29;20066;-63
2023/11/01 21:05:57;;;;;;;4.20;3.00;;;;;;;;;;10234719;28;20102;-63
2023/11/01 21:10:58;;;;;;;5.47;3.15;;;;;;;;;;10243201;28;20027;-62
2023/11/01 21:15:59;;;;;;;3.50;2.90;;;;;;;;;;10240825;28;20502;-62
2023/11/01 21:21:00;;;;;;;4.50;3.10;;;;;;;;;;10239538;28;20042;-63
2023/11/01 21:26:01;;;;;;;3.58;2.83;;;;;;;;;;10226635;28;20046;-63
2023/11/01 21:31:09;;;;;;;4.93;3.40;;;;;;;;;;10228873;28;20061;-63
2023/11/01 21:36:10;;;;;;;;;;;;;;;;;;10233748;28;20110;-62
2023/11/01 21:41:10;;;;;;;5.35;3.42;;;;;;;;;;10252019;28;19927;-62
2023/11/01 21:46:13;;;;;;;3.90;2.88;;;;;;;;;;10240791;28;20071;-62
2023/11/01 21:51:14;;;;;;;5.53;3.03;;;;;;;;;;10230246;28;20094;-62
2023/11/01 21:56:18;;;;;;;4.38;3.28;;;;;;;;;;10236750;28;20050;-62
2023/11/01 22:01:20;;;;;;;5.10;3.22;;;;;;;;;;10237572;28;20035;-62
2023/11/01 22:06:28;;;;;;;6.78;3.58;;;;;;;;;;10234940;28;20574;-62
2023/11/01 22:11:34;;;;;;;5.53;3.30;;;;;;;;;;10238023;28;20098;-62
2023/11/01 22:16:36;;;;;;;3.88;3.10;;;;;;;;;;10228492;28;20396;-62
2023/11/01 22:21:37;;;;;;;4.88;3.38;;;;;;;;;;10238636;28;20031;-62
2023/11/01 22:26:41;;;;;;;3.67;2.97;;;;;;;;;;10238807;28;20040;-62
2023/11/01 22:31:54;;;;;;;5.18;3.08;;;;;;;;;;10232521;28;20097;-63
2023/11/01 22:36:55;;;;;;;3.80;3.00;;;;;;;;;;10241585;28;20047;-65
2023/11/01 22:41:56;;;;;;;3.95;2.90;;;;;;;;;;10243540;28;20038;-64
2023/11/01 22:46:57;;;;;;;5.78;3.70;;;;;;;;;;10233731;28;20031;-64
2023/11/01 22:52:00;;;;;;;3.67;2.95;;;;;;;;;;10238338;28;20051;-63
2023/11/01 22:57:01;;;;;;;13.82;4.63;;;;;;;;;;10235073;28;20028;-63
2023/11/01 23:02:02;;;;;;;12.90;4.50;;;;;;;;;;10231865;28;20383;-67
2023/11/01 23:07:03;;;;;;;10.55;3.92;;;;;;;;;;10246095;28;20039;-66
2023/11/01 23:12:05;;;;;;;10.50;3.92;;;;;;;;;;10241776;28;20031;-65
2023/11/01 23:17:07;;;;;;;16.70;3.55;;;;;;;;;;10228643;28;20027;-65
2023/11/01 23:22:07;;;;;;;9.38;4.05;;;;;;;;;;10247989;28;20686;-66
2023/11/01 23:27:09;;;;;;;7.50;3.90;;;;;;;;;;10250085;28;20031;-66
2023/11/01 23:32:12;;;;;;;24.95;4.68;;;;;;;;;;10240684;29;20040;-67
2023/11/01 23:37:31;;;;;;;8.27;3.80;;;;;;;;;;10250165;28;20031;-66
2023/11/01 23:42:33;;;;;;;12.48;3.78;;;;;;;;;;10244708;29;20039;-66
2023/11/01 23:47:36;;;;;;;12.43;4.05;;;;;;;;;;10249268;28;20038;-67
2023/11/01 23:52:37;;;;;;;9.90;3.70;;;;;;;;;;10241022;28;20166;-67
2023/11/01 23:57:37;;;;;;;6.20;3.42;;;;;;;;;;10250422;28;20054;-67
